Time;durP1;ratioP1;P1;durP2;ratioP2;P2;SDS_P1;SDS_P2;PMS_P1;PMS_P2;Temp;Humidity;BMP_temperature;BMP_pressure;BME280_temperature;BME280_humidity;BME280_pressure;Samples;Min_cycle;Max_cycle;Signal;HPM_P1;HPM_P2
2023/05/30 00:00:13;;;;;;;15.55;3.00;;;;;;;9.89;72.23;102491.13;5086455;28;20139;-72
2023/05/30 00:03:00;;;;;;;10.40;2.58;;;;;;;9.85;72.65;102495.53;5083126;28;20056;-72
2023/05/30 00:05:46;;;;;;;11.77;2.92;;;;;;;9.83;73.16;102494.63;5085741;28;20057;-72
2023/05/30 00:08:31;;;;;;;12.63;2.72;;;;;;;9.81;73.37;102503.44;5085891;28;20045;-72
2023/05/30 00:11:18;;;;;;;16.05;3.63;;;;;;;9.78;73.33;102499.06;5084470;28;20131;-72
2023/05/30 00:14:04;;;;;;;11.10;3.03;;;;;;;9.72;73.43;102510.47;5078057;28;20509;-72
2023/05/30 00:16:49;;;;;;;11.40;2.70;;;;;;;9.72;73.68;102501.66;5082333;28;20052;-74
2023/05/30 00:19:35;;;;;;;13.52;3.25;;;;;;;9.69;73.79;102493.78;5083914;28;20048;-73
2023/05/30 00:22:23;;;;;;;13.05;2.90;;;;;;;9.67;74.16;102493.75;5086102;28;20044;-74
2023/05/30 00:25:09;;;;;;;12.90;2.75;;;;;;;9.63;74.05;102498.16;5084762;28;20509;-74
2023/05/30 00:27:55;;;;;;;14.27;3.65;;;;;;;9.62;74.40;102496.41;5082031;28;20061;-74
2023/05/30 00:30:41;;;;;;;16.23;3.30;;;;;;;9.63;74.34;102510.47;5075599;28;20061;-74
2023/05/30 00:33:26;;;;;;;14.07;2.90;;;;;;;9.56;74.27;102499.03;5078922;28;20139;-74
2023/05/30 00:36:12;;;;;;;11.63;2.90;;;;;;;9.54;74.65;102506.06;5075947;28;20059;-73
2023/05/30 00:38:57;;;;;;;14.70;3.03;;;;;;;9.54;74.79;102498.16;5080877;28;20049;-74
2023/05/30 00:41:43;;;;;;;12.65;2.80;;;;;;;9.50;74.87;102496.41;5080409;28;20056;-73
2023/05/30 00:44:28;;;;;;;11.75;2.83;;;;;;;9.48;75.33;102498.16;5086450;28;20143;-75
2023/05/30 00:47:14;;;;;;;11.38;2.60;;;;;;;9.44;75.06;102504.28;5081915;28;20075;-77
2023/05/30 00:50:03;;;;;;;14.68;3.30;;;;;;;9.41;75.40;102499.06;5081373;28;20067;-77
2023/05/30 00:52:49;;;;;;;12.70;3.03;;;;;;;9.38;75.77;102499.03;5076732;28;20147;-76
2023/05/30 00:55:35;;;;;;;12.32;3.58;;;;;;;9.37;76.11;102513.06;5060794;28;20552;-73
2023/05/30 00:58:21;;;;;;;14.48;3.35;;;;;;;9.31;76.25;102506.91;5078563;28;20134;-73
2023/05/30 01:01:08;;;;;;;13.68;3.13;;;;;;;9.29;76.37;102515.69;5058075;28;20060;-72
2023/05/30 01:03:54;;;;;;;18.33;3.17;;;;;;;9.25;76.25;102514.81;5081251;28;20441;-74
2023/05/30 01:06:40;;;;;;;16.15;3.22;;;;;;;9.25;76.58;102512.16;5078243;28;20053;-74
2023/05/30 01:09:26;;;;;;;11.80;2.95;;;;;;;9.20;76.89;102516.56;5071891;28;21318;-73
2023/05/30 01:12:33;;;;;;;10.77;3.28;;;;;;;9.19;76.64;102521.78;5074725;28;20483;-72
2023/05/30 01:15:39;;;;;;;12.82;3.10;;;;;;;9.20;77.41;102513.03;5061300;28;20056;-73
2023/05/30 01:18:55;;;;;;;15.30;3.20;;;;;;;9.17;77.42;102522.66;5084576;28;20052;-74
2023/05/30 01:21:43;;;;;;;15.32;3.63;;;;;;;9.09;77.28;102521.78;5069827;28;20056;-74
2023/05/30 01:24:41;;;;;;;15.50;3.80;;;;;;;9.04;77.34;102528.78;5079990;28;20057;-73
2023/05/30 01:28:08;;;;;;;14.40;3.60;;;;;;;9.03;77.82;102527.03;5069572;28;20053;-73
2023/05/30 01:30:56;;;;;;;14.55;3.47;;;;;;;8.99;78.11;102527.88;5070984;28;20079;-74
2023/05/30 01:33:45;;;;;;;11.15;2.88;;;;;;;8.95;78.48;102524.38;5062764;28;20057;-73
2023/05/30 01:36:31;;;;;;;16.88;3.47;;;;;;;8.93;78.77;102522.63;5075392;28;20082;-73
2023/05/30 01:39:16;;;;;;;14.85;3.22;;;;;;;8.88;79.06;102525.22;5072464;28;20040;-73
2023/05/30 01:42:16;;;;;;;14.05;3.50;;;;;;;8.84;78.85;102519.09;5068458;28;20060;-72
2023/05/30 01:45:17;;;;;;;17.13;4.07;;;;;;;8.83;79.78;102529.56;5083970;28;20052;-72
2023/05/30 01:48:12;;;;;;;9.10;2.80;;;;;;;8.81;79.81;102529.59;5075564;28;20433;-72
2023/05/30 01:51:03;;;;;;;12.98;3.60;;;;;;;8.76;79.92;102530.44;5077509;28;20064;-74
2023/05/30 01:53:59;;;;;;;16.50;3.15;;;;;;;8.77;80.22;102532.19;5069520;28;20053;-74
2023/05/30 01:56:50;;;;;;;16.38;3.30;;;;;;;8.75;80.31;102531.31;5068156;28;20084;-74
2023/05/30 01:59:39;;;;;;;15.48;3.80;;;;;;;8.72;80.48;102534.81;5067615;28;20056;-73
2023/05/30 02:02:25;;;;;;;14.77;3.40;;;;;;;8.67;80.58;102532.16;5056334;28;20060;-72
2023/05/30 02:05:10;;;;;;;14.82;3.60;;;;;;;8.65;80.89;102536.53;5057040;28;20132;-72
2023/05/30 02:07:57;;;;;;;12.68;3.35;;;;;;;8.63;81.01;102534.75;5069455;28;20517;-72
2023/05/30 02:10:42;;;;;;;14.38;3.50;;;;;;;8.61;81.29;102539.13;5082760;28;20103;-73
2023/05/30 02:13:28;;;;;;;17.67;3.60;;;;;;;8.58;81.33;102544.38;5061224;28;20371;-72
2023/05/30 02:16:13;;;;;;;12.05;3.38;;;;;;;8.57;81.71;102551.38;5082797;28;20064;-72
2023/05/30 02:19:00;;;;;;;13.82;3.33;;;;;;;8.57;81.68;102556.66;5083703;28;20091;-73
2023/05/30 02:21:45;;;;;;;16.13;3.53;;;;;;;8.59;82.04;102554.91;5073294;28;20045;-73
2023/05/30 02:24:31;;;;;;;12.52;3.67;;;;;;;8.59;81.87;102557.53;5088408;28;20048;-75
2023/05/30 02:27:17;;;;;;;17.63;3.63;;;;;;;8.61;81.81;102552.28;5068132;28;20053;-72
2023/05/30 02:30:02;;;;;;;19.77;4.22;;;;;;;8.65;81.75;102551.41;5071045;28;20760;-73
2023/05/30 02:32:47;;;;;;;12.77;3.85;;;;;;;8.65;81.89;102561.91;5070545;28;20053;-73
2023/05/30 02:35:33;;;;;;;14.50;3.70;;;;;;;8.69;81.87;102548.81;5085486;28;20060;-72
2023/05/30 02:38:18;;;;;;;14.95;4.15;;;;;;;8.73;81.93;102551.44;5082596;28;20052;-71
2023/05/30 02:41:05;;;;;;;11.48;3.70;;;;;;;8.72;81.92;102563.72;5089033;28;20064;-73
2023/05/30 02:43:51;;;;;;;15.77;4.13;;;;;;;8.74;81.92;102558.47;5066472;28;20102;-73
2023/05/30 02:46:36;;;;;;;17.63;4.63;;;;;;;8.77;81.94;102556.72;5071925;28;20052;-73
2023/05/30 02:49:23;;;;;;;19.33;4.53;;;;;;;8.79;81.90;102560.25;5071988;28;20421;-72
2023/05/30 02:52:09;;;;;;;16.50;4.70;;;;;;;8.89;81.92;102560.28;5083652;28;20976;-73
2023/05/30 02:55:05;;;;;;;13.68;4.10;;;;;;;8.90;81.85;102559.41;5072367;28;20056;-73
2023/05/30 02:58:13;;;;;;;14.32;4.07;;;;;;;8.90;81.89;102562.03;5072941;28;20087;-73
2023/05/30 03:01:10;;;;;;;16.77;3.97;;;;;;;8.93;82.17;102562.06;5075359;28;20056;-73
2023/05/30 03:03:55;;;;;;;14.32;3.88;;;;;;;8.99;81.92;102567.34;5081507;28;20516;-73
2023/05/30 03:06:51;;;;;;;15.05;3.70;;;;;;;9.02;81.71;102562.97;5073243;28;20056;-72
2023/05/30 03:09:40;;;;;;;14.23;3.58;;;;;;;9.06;81.76;102557.72;5087809;28;20051;-72
2023/05/30 03:12:25;;;;;;;13.77;3.85;;;;;;;9.05;81.51;102564.75;5080401;28;20057;-72
2023/05/30 03:15:11;;;;;;;13.75;3.78;;;;;;;9.06;81.61;102557.72;5088977;28;20052;-72
2023/05/30 03:17:57;;;;;;;13.95;3.58;;;;;;;9.07;81.50;102560.34;5073112;28;20149;-72
2023/05/30 03:20:44;;;;;;;13.32;3.35;;;;;;;9.12;81.23;102563.00;5064908;28;20060;-73
2023/05/30 03:23:30;;;;;;;17.17;4.35;;;;;;;9.17;81.18;102558.66;5085865;28;20052;-71
2023/05/30 03:26:15;;;;;;;17.55;4.15;;;;;;;9.16;80.97;102564.78;5067193;28;20052;-71
2023/05/30 03:29:03;;;;;;;16.30;4.38;;;;;;;9.20;80.73;102563.03;5072745;28;20513;-71
2023/05/30 03:31:49;;;;;;;15.95;4.13;;;;;;;9.20;80.88;102563.03;5070846;28;20590;-71
2023/05/30 03:34:35;;;;;;;14.82;3.80;;;;;;;9.25;80.56;102572.69;5065784;28;20048;-71
2023/05/30 03:37:20;;;;;;;13.38;3.65;;;;;;;9.26;80.54;102568.34;5066283;28;20057;-71
2023/05/30 03:40:08;;;;;;;15.23;4.00;;;;;;;9.28;80.40;102571.81;5087425;28;20809;-73
2023/05/30 03:42:55;;;;;;;19.27;4.38;;;;;;;9.31;80.15;102574.47;5084514;28;20428;-74
2023/05/30 03:45:40;;;;;;;15.52;4.55;;;;;;;9.30;80.34;102578.88;5072468;28;20057;-74
2023/05/30 03:48:25;;;;;;;16.77;4.05;;;;;;;9.32;80.32;102579.72;5068891;28;20044;-72
2023/05/30 03:51:12;;;;;;;13.55;3.35;;;;;;;9.36;80.00;102575.34;5074725;28;20056;-72
2023/05/30 03:53:58;;;;;;;14.65;3.50;;;;;;;9.37;79.96;102589.41;5084471;28;20099;-72
2023/05/30 03:56:43;;;;;;;15.02;3.97;;;;;;;9.43;79.83;102584.13;5084126;28;21045;-78
2023/05/30 03:59:28;;;;;;;13.52;3.83;;;;;;;9.47;79.34;102583.28;5083309;28;20103;-77
2023/05/30 04:02:15;;;;;;;16.75;4.13;;;;;;;9.48;79.26;102587.69;5087005;28;20128;-77
2023/05/30 04:05:00;;;;;;;17.60;3.97;;;;;;;9.49;79.65;102584.19;5087213;28;20044;-77
2023/05/30 04:07:47;;;;;;;14.35;3.72;;;;;;;9.55;79.42;102578.91;5070699;28;20060;-78
2023/05/30 04:10:32;;;;;;;12.73;4.00;;;;;;;9.64;79.07;102583.31;5087982;28;20052;-75
2023/05/30 04:13:18;;;;;;;13.75;3.83;;;;;;;9.72;78.60;102576.31;5083466;28;20048;-74
2023/05/30 04:16:06;;;;;;;21.55;5.10;;;;;;;9.73;78.07;102577.16;5074422;28;20044;-74
2023/05/30 04:18:52;;;;;;;15.90;4.30;;;;;;;9.75;78.35;102576.31;5084958;28;20783;-74
2023/05/30 04:21:39;;;;;;;14.43;4.30;;;;;;;9.77;78.37;102574.53;5069394;28;20053;-72
2023/05/30 04:24:25;;;;;;;11.82;3.92;;;;;;;9.91;77.90;102586.84;5087832;28;20052;-72
2023/05/30 04:27:13;;;;;;;14.90;4.68;;;;;;;9.93;77.49;102583.31;5086122;28;20061;-71
2023/05/30 04:30:00;;;;;;;12.80;4.25;;;;;;;9.93;77.24;102585.97;5095849;28;20048;-71
2023/05/30 04:32:45;;;;;;;15.98;4.45;;;;;;;9.99;76.98;102579.81;5107406;28;20112;-72
2023/05/30 04:35:32;;;;;;;14.38;4.30;;;;;;;9.94;77.17;102582.44;5085616;28;20057;-76
2023/05/30 04:38:20;;;;;;;11.60;4.00;;;;;;;10.00;77.07;102583.34;5061067;28;20045;-78
2023/05/30 04:41:05;;;;;;;10.55;3.65;;;;;;;10.02;77.16;102586.88;5062794;28;20048;-76
2023/05/30 04:43:57;;;;;;;13.35;4.47;;;;;;;10.02;77.69;102589.50;5077979;28;20453;-76
2023/05/30 04:46:46;;;;;;;13.00;5.07;;;;;;;10.14;76.38;102589.47;5053486;28;20538;-74
2023/05/30 04:49:32;;;;;;;12.63;4.15;;;;;;;10.11;76.43;102584.22;5066083;28;20048;-77
2023/05/30 04:52:18;;;;;;;13.40;4.40;;;;;;;10.16;76.31;102587.72;5083328;28;20455;-77
2023/05/30 04:55:03;;;;;;;18.80;4.93;;;;;;;10.18;76.31;102580.69;5083615;28;20057;-77
2023/05/30 04:57:49;;;;;;;14.25;4.38;;;;;;;10.27;76.24;102587.72;5077888;28;20053;-76
2023/05/30 05:00:36;;;;;;;13.43;4.03;;;;;;;10.36;75.86;102582.44;5086568;28;20049;-77
2023/05/30 05:03:21;;;;;;;15.10;4.47;;;;;;;10.40;75.07;102581.56;5078947;28;20056;-77
2023/05/30 05:06:08;;;;;;;11.38;4.20;;;;;;;10.40;75.01;102576.28;5075870;28;20056;-77
2023/05/30 05:08:53;;;;;;;13.50;4.53;;;;;;;10.36;75.06;102584.19;5080953;28;20059;-76
2023/05/30 05:11:39;;;;;;;9.90;4.10;;;;;;;10.36;75.52;102582.44;5074895;28;20044;-76
2023/05/30 05:14:25;;;;;;;13.40;4.63;;;;;;;10.42;74.78;102584.22;5082622;28;20053;-78
2023/05/30 05:17:10;;;;;;;14.20;4.05;;;;;;;10.42;74.75;102584.22;5080023;28;20143;-75
2023/05/30 05:19:55;;;;;;;13.77;4.65;;;;;;;10.44;74.97;102581.56;5073337;28;20060;-75
2023/05/30 05:22:43;;;;;;;13.57;4.10;;;;;;;10.47;74.46;102581.56;5080038;28;20060;-76
2023/05/30 05:25:29;;;;;;;12.85;4.18;;;;;;;10.47;74.56;102594.75;5081552;28;20112;-76
2023/05/30 05:28:15;;;;;;;12.05;4.20;;;;;;;10.47;74.52;102593.00;5081620;28;20480;-78
2023/05/30 05:31:00;;;;;;;10.50;4.00;;;;;;;10.49;74.65;102595.63;5081236;28;20606;-76
2023/05/30 05:33:45;;;;;;;13.57;4.15;;;;;;;10.50;74.57;102598.25;5075638;28;20748;-77
2023/05/30 05:36:31;;;;;;;13.90;4.97;;;;;;;10.55;74.50;102593.84;5080884;28;20261;-76
2023/05/30 05:39:16;;;;;;;12.88;4.63;;;;;;;10.61;73.72;102592.94;5075956;28;20837;-76
2023/05/30 05:42:02;;;;;;;10.45;4.07;;;;;;;10.67;73.40;102597.34;5084169;28;20049;-77
2023/05/30 05:44:47;;;;;;;13.90;4.93;;;;;;;10.70;73.19;102594.69;5073580;28;20056;-77
2023/05/30 05:47:33;;;;;;;11.85;4.40;;;;;;;10.72;72.83;102596.44;5069012;28;20053;-77
2023/05/30 05:50:18;;;;;;;18.65;4.40;;;;;;;10.70;73.07;102599.97;5078342;28;20218;-76
2023/05/30 05:53:04;;;;;;;14.68;4.53;;;;;;;10.74;73.33;102599.06;5076949;28;20057;-75
2023/05/30 05:55:49;;;;;;;12.05;4.80;;;;;;;10.76;72.98;102593.81;5078822;28;20056;-76
2023/05/30 05:58:34;;;;;;;13.02;4.40;;;;;;;10.78;73.20;102605.25;5080702;28;20156;-75
2023/05/30 06:01:20;;;;;;;13.68;4.53;;;;;;;10.86;72.82;102609.59;5078495;28;20095;-76
2023/05/30 06:04:13;;;;;;;14.23;5.00;;;;;;;10.90;72.13;102606.94;5081834;28;20053;-77
2023/05/30 06:06:59;;;;;;;12.15;4.35;;;;;;;10.88;72.04;102606.97;5072774;28;20057;-76
2023/05/30 06:09:44;;;;;;;11.75;4.40;;;;;;;10.91;71.80;102606.94;5081654;28;20088;-76
2023/05/30 06:12:29;;;;;;;7.90;4.20;;;;;;;11.02;71.34;102604.28;5074552;28;20060;-77
2023/05/30 06:15:15;;;;;;;11.23;4.35;;;;;;;11.02;71.59;102602.50;5080539;28;20060;-76
2023/05/30 06:18:00;;;;;;;14.68;5.60;;;;;;;11.11;71.30;102598.06;5083592;28;20056;-76
2023/05/30 06:20:45;;;;;;;15.60;4.45;;;;;;;11.28;70.71;102590.97;5078395;28;20803;-76
2023/05/30 06:23:31;;;;;;;12.77;4.68;;;;;;;11.36;70.19;102592.66;5074603;28;20060;-70
2023/05/30 06:26:16;;;;;;;15.88;5.05;;;;;;;11.41;70.32;102606.69;5081172;28;20829;-76
2023/05/30 06:29:02;;;;;;;10.88;4.53;;;;;;;11.44;70.17;102594.38;5071212;28;20061;-78
2023/05/30 06:31:48;;;;;;;10.93;4.80;;;;;;;11.54;69.14;102600.47;5080556;28;20049;-76
2023/05/30 06:38:36;;;;;;;13.57;4.60;;;;;;;11.69;67.83;102610.06;5072614;28;20045;-77
2023/05/30 06:41:22;;;;;;;13.00;4.70;;;;;;;11.80;67.33;102604.72;5081275;28;20510;-76
2023/05/30 06:44:08;;;;;;;10.10;4.25;;;;;;;11.78;67.55;102609.13;5078868;28;20493;-77
2023/05/30 06:46:54;;;;;;;13.30;4.75;;;;;;;11.88;67.37;102602.00;5080619;28;20139;-77
2023/05/30 06:49:39;;;;;;;11.20;4.20;;;;;;;11.98;67.05;102609.00;5087159;28;20698;-77
2023/05/30 06:52:25;;;;;;;15.98;5.00;;;;;;;12.06;66.32;102607.16;5086748;28;20123;-76
2023/05/30 06:55:10;;;;;;;12.50;4.60;;;;;;;11.96;66.57;102610.75;5084429;28;20053;-77
2023/05/30 06:57:56;;;;;;;11.05;4.35;;;;;;;11.99;66.86;102612.53;5085504;28;20056;-78
2023/05/30 07:00:42;;;;;;;12.20;4.35;;;;;;;12.02;67.00;102618.66;5082826;28;20053;-76
2023/05/30 07:03:27;;;;;;;11.43;4.63;;;;;;;12.15;66.18;102621.22;5082491;28;20048;-77
2023/05/30 07:06:12;;;;;;;9.55;4.35;;;;;;;12.20;65.94;102617.66;5069771;28;20704;-77
2023/05/30 07:08:58;;;;;;;13.95;4.88;;;;;;;12.25;65.69;102613.19;5082626;28;20057;-77
2023/05/30 07:11:43;;;;;;;9.68;4.78;;;;;;;12.30;64.89;102606.97;5086699;28;20103;-76
2023/05/30 07:14:29;;;;;;;9.40;4.72;;;;;;;12.30;65.25;102614.91;5082323;28;20057;-76
2023/05/30 07:17:14;;;;;;;11.82;4.30;;;;;;;12.32;65.18;102621.03;5073246;28;20056;-78
2023/05/30 07:19:59;;;;;;;15.32;4.88;;;;;;;12.41;65.18;102623.63;5083938;28;20049;-76
2023/05/30 07:22:45;;;;;;;11.00;4.60;;;;;;;12.55;64.64;102613.78;5081018;28;20585;-75
2023/05/30 07:25:31;;;;;;;11.93;4.75;;;;;;;12.66;64.56;102626.00;5075439;28;20128;-75
2023/05/30 07:28:16;;;;;;;13.27;5.28;;;;;;;12.72;64.26;102623.28;5069207;28;20124;-77
2023/05/30 07:31:03;;;;;;;9.57;4.20;;;;;;;12.81;64.12;102624.97;5083899;28;20057;-75
2023/05/30 07:33:48;;;;;;;12.52;4.63;;;;;;;12.94;63.96;102629.22;5082432;28;20049;-78
2023/05/30 07:36:33;;;;;;;10.30;4.32;;;;;;;13.00;63.31;102630.94;5074744;28;20052;-76
2023/05/30 07:39:19;;;;;;;8.52;4.32;;;;;;;13.13;62.70;102629.88;5082008;28;20065;-76
2023/05/30 07:42:05;;;;;;;8.45;3.90;;;;;;;13.20;62.88;102636.88;5081172;28;20048;-76
2023/05/30 07:44:51;;;;;;;13.13;4.55;;;;;;;13.32;61.53;102637.59;5079327;28;20129;-76
2023/05/30 07:47:36;;;;;;;12.52;4.57;;;;;;;13.37;61.83;102625.16;5076157;28;20057;-76
2023/05/30 07:50:21;;;;;;;9.93;4.53;;;;;;;13.49;61.76;102622.38;5079011;28;20114;-76
2023/05/30 07:53:07;;;;;;;10.10;4.13;;;;;;;13.58;61.55;102629.28;5068573;28;20209;-76
2023/05/30 07:55:52;;;;;;;11.63;4.35;;;;;;;13.68;60.82;102619.44;5073966;28;20056;-75
2023/05/30 07:58:37;;;;;;;11.88;3.97;;;;;;;13.76;59.93;102622.84;5081385;28;20060;-77
2023/05/30 08:01:23;;;;;;;9.50;4.35;;;;;;;13.81;59.88;102617.47;5086456;28;20056;-75
2023/05/30 08:04:08;;;;;;;13.50;5.05;;;;;;;13.87;59.54;102630.66;5089225;28;20120;-75
2023/05/30 08:06:53;;;;;;;11.48;4.45;;;;;;;14.01;59.03;102618.94;5088286;28;20045;-75
2023/05/30 08:09:38;;;;;;;12.43;4.63;;;;;;;14.07;59.10;102614.41;5087975;28;20064;-76
2023/05/30 08:12:28;;;;;;;16.05;4.90;;;;;;;14.14;58.32;102616.03;5087895;28;20064;-75
2023/05/30 08:15:14;;;;;;;12.13;4.32;;;;;;;14.16;58.53;102612.50;5088091;28;20057;-76
2023/05/30 08:18:00;;;;;;;14.25;4.90;;;;;;;14.26;58.62;102614.97;5088045;28;20049;-75
2023/05/30 08:20:50;;;;;;;10.52;4.10;;;;;;;14.40;57.73;102613.84;5088144;28;20551;-74
2023/05/30 08:23:36;;;;;;;12.10;4.47;;;;;;;14.53;57.77;102612.72;5086820;28;20529;-75
2023/05/30 08:26:24;;;;;;;10.10;4.97;;;;;;;14.48;56.72;102609.28;5088521;28;20052;-75
2023/05/30 08:29:10;;;;;;;11.70;4.53;;;;;;;14.42;57.45;102604.97;5088429;28;20114;-74
2023/05/30 08:31:56;;;;;;;10.45;4.47;;;;;;;14.50;57.20;102604.81;5088248;28;20549;-75
2023/05/30 08:34:43;;;;;;;8.82;4.40;;;;;;;14.50;57.66;102607.47;5087732;28;20057;-75
2023/05/30 08:37:29;;;;;;;9.38;4.50;;;;;;;14.68;56.66;102606.28;5087950;28;20052;-76
2023/05/30 08:40:15;;;;;;;16.08;4.28;;;;;;;14.70;56.13;102596.50;5088445;28;20087;-75
2023/05/30 08:43:01;;;;;;;8.40;3.95;;;;;;;14.70;56.38;102601.81;5079794;28;20560;-76
2023/05/30 08:45:50;;;;;;;8.18;3.63;;;;;;;14.80;55.78;102597.22;5067789;28;20186;-76
2023/05/30 08:48:36;;;;;;;11.05;4.60;;;;;;;14.98;55.65;102598.59;5075257;28;20056;-74
2023/05/30 08:51:24;;;;;;;12.50;4.80;;;;;;;15.13;55.38;102589.41;5068518;28;20112;-74
2023/05/30 08:54:22;;;;;;;9.85;4.35;;;;;;;15.42;55.06;102587.88;5066782;28;20484;-76
2023/05/30 08:57:17;;;;;;;11.68;4.60;;;;;;;15.74;53.33;102590.72;5065854;28;20096;-75
2023/05/30 09:00:05;;;;;;;11.63;4.55;;;;;;;15.66;54.17;102583.81;5074199;28;20053;-74
2023/05/30 09:02:55;;;;;;;10.95;4.68;;;;;;;15.64;54.36;102584.72;5087688;28;20056;-74
2023/05/30 09:05:43;;;;;;;10.98;4.75;;;;;;;15.75;54.16;102579.19;5087619;28;20060;-76
2023/05/30 09:08:30;;;;;;;12.00;4.80;;;;;;;15.89;53.72;102573.53;5086267;28;20083;-75
2023/05/30 09:11:16;;;;;;;9.35;4.53;;;;;;;15.97;52.72;102577.72;5083945;28;20629;-76
2023/05/30 09:14:01;;;;;;;10.57;4.93;;;;;;;15.84;53.12;102571.88;5102159;28;20181;-74
2023/05/30 09:16:47;;;;;;;11.30;4.28;;;;;;;15.95;53.20;102565.41;5098217;28;20073;-76
2023/05/30 09:19:34;;;;;;;15.30;4.93;;;;;;;16.14;53.43;102565.81;5077365;28;21494;-76
2023/05/30 09:22:19;;;;;;;11.95;5.10;;;;;;;16.26;53.50;102567.25;5087312;28;20048;-76
2023/05/30 09:25:05;;;;;;;14.02;4.60;;;;;;;16.32;52.68;102571.53;5086788;28;20053;-76
2023/05/30 09:27:52;;;;;;;9.10;5.00;;;;;;;16.34;52.89;102562.59;5087098;28;20052;-74
2023/05/30 09:30:56;;;;;;;10.32;4.72;;;;;;;16.39;51.99;102573.13;5087020;28;20052;-76
2023/05/30 09:33:47;;;;;;;11.02;4.80;;;;;;;16.33;52.39;102559.97;5085565;28;20049;-76
2023/05/30 09:36:33;;;;;;;11.98;5.05;;;;;;;16.48;52.60;102551.59;5079113;28;20059;-74
2023/05/30 09:39:18;;;;;;;9.55;4.03;;;;;;;16.70;51.79;102554.50;5084813;28;20174;-77
2023/05/30 09:42:05;;;;;;;13.57;4.60;;;;;;;16.73;50.99;102551.75;5051685;28;20525;-77
2023/05/30 09:44:54;;;;;;;15.48;4.80;;;;;;;16.75;51.34;102555.22;5087268;28;20752;-77
2023/05/30 09:47:48;;;;;;;10.55;5.20;;;;;;;16.84;51.39;102554.09;5071061;28;20053;-77
2023/05/30 09:50:35;;;;;;;10.60;4.85;;;;;;;17.01;50.89;102544.75;5074824;28;20056;-77
2023/05/30 09:53:21;;;;;;;13.70;4.80;;;;;;;16.96;51.11;102549.34;5086710;28;20060;-75
2023/05/30 09:56:07;;;;;;;11.95;4.40;;;;;;;17.13;51.10;102548.84;5067997;28;20057;-77
2023/05/30 09:58:58;;;;;;;11.32;5.25;;;;;;;17.24;50.93;102552.06;5066769;28;20599;-78
2023/05/30 10:01:46;;;;;;;14.73;5.22;;;;;;;17.25;50.31;102553.78;5081510;28;20835;-77
2023/05/30 10:04:31;;;;;;;12.60;5.22;;;;;;;17.23;49.97;102548.50;5086748;28;20052;-77
2023/05/30 10:07:19;;;;;;;10.52;5.25;;;;;;;17.21;50.85;102553.00;5086859;28;20049;-76
2023/05/30 10:10:06;;;;;;;12.88;5.70;;;;;;;17.15;50.70;102539.88;5084381;28;20104;-76
2023/05/30 10:12:54;;;;;;;11.55;4.90;;;;;;;17.25;51.57;102540.44;5086766;28;20045;-76
2023/05/30 10:15:39;;;;;;;9.95;3.85;;;;;;;17.47;50.30;102535.31;5087182;28;20766;-78
2023/05/30 10:18:26;;;;;;;26.17;5.95;;;;;;;17.68;49.71;102541.72;5068486;28;20052;-78
2023/05/30 10:21:17;;;;;;;11.38;4.75;;;;;;;17.77;49.07;102537.00;5078194;28;20053;-77
2023/05/30 10:24:04;;;;;;;12.38;4.10;;;;;;;17.75;49.30;102538.88;5083625;28;20049;-75
2023/05/30 10:27:03;;;;;;;11.55;4.60;;;;;;;17.92;47.19;102532.94;5086527;28;20052;-77
2023/05/30 10:30:07;;;;;;;11.32;4.20;;;;;;;17.81;48.09;102538.66;5080865;28;20057;-76
2023/05/30 10:33:20;;;;;;;9.50;4.57;;;;;;;17.87;48.09;102534.91;5086627;28;20814;-78
2023/05/30 10:36:23;;;;;;;8.65;4.60;;;;;;;17.90;47.20;102529.47;5084936;28;20117;-77
2023/05/30 10:39:48;;;;;;;14.18;4.85;;;;;;;17.87;48.17;102524.22;5090345;28;20982;-76
2023/05/30 10:42:55;;;;;;;14.07;4.38;;;;;;;18.24;46.46;102526.50;5070236;28;20117;-77
2023/05/30 10:46:13;;;;;;;8.45;3.92;;;;;;;18.23;47.74;102506.09;5069814;28;20045;-76
2023/05/30 10:49:04;;;;;;;10.20;3.80;;;;;;;18.43;46.92;102523.16;5077463;28;20102;-77
2023/05/30 10:52:03;;;;;;;11.18;4.10;;;;;;;18.44;46.76;102512.41;5083293;28;20056;-76
2023/05/30 10:54:50;;;;;;;22.15;5.70;;;;;;;18.57;47.79;102511.97;5088746;28;20056;-78
2023/05/30 10:57:35;;;;;;;12.50;4.28;;;;;;;18.85;46.85;102510.91;5074167;28;20048;-76
2023/05/30 11:00:25;;;;;;;9.73;4.35;;;;;;;18.98;45.54;102505.97;5088747;28;21424;-77
2023/05/30 11:03:36;;;;;;;10.65;3.90;;;;;;;18.90;45.58;102506.28;5089682;28;20151;-78
2023/05/30 11:06:22;;;;;;;8.65;3.80;;;;;;;18.89;45.57;102502.72;5089149;28;20063;-78
2023/05/30 11:09:16;;;;;;;23.50;5.05;;;;;;;18.91;46.12;102503.53;5089887;28;20052;-77
2023/05/30 11:12:02;;;;;;;11.02;4.57;;;;;;;19.09;45.73;102493.94;5080913;28;20045;-76
2023/05/30 11:14:57;;;;;;;9.40;3.60;;;;;;;19.30;45.05;102496.69;5082695;28;20060;-75
2023/05/30 11:17:43;;;;;;;7.78;3.50;;;;;;;19.33;44.17;102493.84;5069615;28;20056;-78
2023/05/30 11:20:29;;;;;;;7.95;3.72;;;;;;;19.29;44.35;102483.34;5073922;28;20061;-76
2023/05/30 11:23:14;;;;;;;8.27;3.22;;;;;;;19.31;44.65;102492.19;5087347;28;20105;-76
2023/05/30 11:25:59;;;;;;;8.40;3.90;;;;;;;19.55;43.90;102488.50;5088253;28;20060;-77
2023/05/30 11:28:45;;;;;;;13.65;4.32;;;;;;;19.49;43.96;102491.41;5088553;28;20064;-78
2023/05/30 11:31:32;;;;;;;8.43;3.95;;;;;;;19.49;44.12;102485.22;5089364;28;20456;-76
2023/05/30 11:34:18;;;;;;;10.23;3.90;;;;;;;19.51;44.96;102475.31;5089335;28;20076;-77
2023/05/30 11:37:04;;;;;;;8.35;3.58;;;;;;;19.69;44.28;102471.88;5087217;28;20052;-77
2023/05/30 11:39:55;;;;;;;10.02;3.92;;;;;;;19.75;43.49;102478.75;5089223;28;20060;-77
2023/05/30 11:42:40;;;;;;;9.23;3.83;;;;;;;19.64;44.07;102465.81;5089619;28;20501;-75
2023/05/30 11:45:28;;;;;;;10.30;4.00;;;;;;;19.75;44.19;102468.06;5087962;28;20056;-77
2023/05/30 11:48:13;;;;;;;8.40;3.20;;;;;;;19.93;43.80;102460.19;5086941;28;20075;-77
2023/05/30 11:50:59;;;;;;;13.05;3.92;;;;;;;20.02;43.34;102468.69;5084370;28;20048;-76
2023/05/30 11:53:46;;;;;;;9.23;3.90;;;;;;;20.00;42.92;102462.53;5082179;28;20065;-74
2023/05/30 11:56:31;;;;;;;9.27;3.65;;;;;;;20.05;43.79;102464.09;5086393;28;20041;-75
2023/05/30 11:59:22;;;;;;;12.52;3.65;;;;;;;20.18;43.91;102451.91;5089857;28;20060;-74
2023/05/30 12:02:08;;;;;;;8.27;3.13;;;;;;;20.38;43.07;102456.38;5087288;28;20056;-74
2023/05/30 12:05:03;;;;;;;9.70;3.60;;;;;;;20.67;43.37;102455.91;5086800;28;20045;-74
2023/05/30 12:07:51;;;;;;;8.02;3.45;;;;;;;20.92;40.78;102448.47;5079100;28;20048;-76
2023/05/30 12:10:37;;;;;;;8.23;2.85;;;;;;;20.87;41.75;102455.00;5080999;28;20061;-76
2023/05/30 12:13:22;;;;;;;9.15;3.40;;;;;;;20.76;41.43;102447.47;5080422;28;20066;-74
2023/05/30 12:16:13;;;;;;;12.63;3.53;;;;;;;20.75;41.66;102441.25;5088703;28;20065;-75
2023/05/30 12:18:58;;;;;;;9.38;3.25;;;;;;;20.70;42.25;102429.88;5087148;28;20429;-73
2023/05/30 12:21:43;;;;;;;11.88;3.60;;;;;;;20.90;42.33;102425.38;5074432;28;20053;-73
2023/05/30 12:24:29;;;;;;;11.85;3.58;;;;;;;21.05;41.60;102432.66;5069563;28;20057;-76
2023/05/30 12:27:20;;;;;;;7.43;3.40;;;;;;;21.07;41.15;102435.25;5076547;28;20057;-77
2023/05/30 12:30:18;;;;;;;7.00;3.47;;;;;;;21.20;40.46;102433.69;5083184;28;20060;-75
2023/05/30 12:33:18;;;;;;;8.18;2.80;;;;;;;20.97;41.09;102426.81;5084626;28;20556;-76
2023/05/30 12:36:04;;;;;;;13.07;3.35;;;;;;;20.88;41.76;102421.91;5088731;28;20056;-73
2023/05/30 12:38:55;;;;;;;9.40;3.25;;;;;;;21.09;40.89;102419.97;5072309;28;20061;-75
2023/05/30 12:41:41;;;;;;;11.38;3.30;;;;;;;21.20;41.37;102414.06;5080556;28;20100;-76
2023/05/30 12:44:27;;;;;;;10.95;3.67;;;;;;;21.26;41.00;102403.03;5084741;28;20492;-74
2023/05/30 12:47:12;;;;;;;6.22;2.90;;;;;;;21.20;40.88;102412.25;5085433;28;20049;-76
2023/05/30 12:49:58;;;;;;;9.18;2.60;;;;;;;21.30;40.31;102401.03;5084189;28;20131;-75
2023/05/30 12:52:43;;;;;;;11.30;3.53;;;;;;;21.26;41.07;102408.38;5084956;28;20045;-77
2023/05/30 12:55:28;;;;;;;14.30;3.88;;;;;;;21.44;41.47;102403.00;5087143;28;20057;-74
2023/05/30 12:58:14;;;;;;;9.68;3.15;;;;;;;21.64;40.27;102402.03;5087684;28;20056;-77
2023/05/30 13:01:00;;;;;;;8.48;3.08;;;;;;;21.66;39.66;102398.31;5082589;28;20060;-77